createdAt,value
2023-04-20T00:00:43.007Z,100528.94
2023-04-20T00:03:23.118Z,100525.16
2023-04-20T00:05:58.577Z,100511.25
2023-04-20T00:08:36.507Z,100524.16
2023-04-20T00:11:17.950Z,100524.97
2023-04-20T00:13:56.728Z,100513.19
2023-04-20T00:19:17.066Z,100522.34
2023-04-20T00:21:54.432Z,100523.47
2023-04-20T00:24:33.514Z,100516.28
2023-04-20T00:27:16.196Z,100504.53
2023-04-20T00:29:49.475Z,100518.25
2023-04-20T00:32:30.972Z,100510.22
2023-04-20T00:35:07.862Z,100512.41
2023-04-20T00:37:40.485Z,100507.59
2023-04-20T00:40:29.992Z,100505.50
2023-04-20T00:43:16.265Z,100512.66
2023-04-20T00:45:53.901Z,100511.91
2023-04-20T00:48:31.644Z,100512.66
2023-04-20T00:51:09.598Z,100511.28
2023-04-20T00:53:47.796Z,100510.47
2023-04-20T00:56:30.881Z,100523.06
2023-04-20T00:59:08.330Z,100514.97
2023-04-20T01:01:46.826Z,100499.19
2023-04-20T01:04:26.015Z,100505.34
2023-04-20T01:07:03.163Z,100515.53
2023-04-20T01:09:40.357Z,100505.88
2023-04-20T01:12:15.057Z,100517.19
2023-04-20T01:14:54.704Z,100512.94
2023-04-20T01:17:33.999Z,100510.25
2023-04-20T01:20:08.773Z,100485.88
2023-04-20T01:22:49.512Z,100509.97
2023-04-20T01:25:35.047Z,100510.28
2023-04-20T01:28:15.486Z,100512.75
2023-04-20T01:30:53.131Z,100511.38
2023-04-20T01:33:39.451Z,100514.06
2023-04-20T01:36:19.045Z,100503.66
2023-04-20T01:38:54.582Z,100505.56
2023-04-20T01:41:44.823Z,100494.31
2023-04-20T01:44:30.596Z,100510.94
2023-04-20T01:47:19.767Z,100510.34
2023-04-20T01:49:56.811Z,100508.22
2023-04-20T01:52:37.686Z,100491.38
2023-04-20T01:55:23.690Z,100520.00
2023-04-20T01:58:06.888Z,100500.19
2023-04-20T02:00:56.151Z,100514.91
2023-04-20T02:03:42.628Z,100509.84
2023-04-20T02:06:20.871Z,100495.13
2023-04-20T02:08:58.725Z,100508.78
2023-04-20T02:11:36.421Z,100510.69
2023-04-20T02:14:11.907Z,100490.13
2023-04-20T02:16:45.095Z,100522.56
2023-04-20T02:19:20.367Z,100513.22
2023-04-20T02:21:56.704Z,100512.16
2023-04-20T02:24:35.585Z,100510.50
2023-04-20T02:27:15.758Z,100514.28
2023-04-20T02:29:53.320Z,100506.78
2023-04-20T02:32:29.153Z,100521.25
2023-04-20T02:35:05.095Z,100505.97
2023-04-20T02:37:41.768Z,100514.81
2023-04-20T02:40:18.486Z,100516.97
2023-04-20T02:42:51.780Z,100511.59
2023-04-20T02:45:29.574Z,100483.78
2023-04-20T02:48:14.446Z,100514.28
2023-04-20T02:50:53.564Z,100515.09
2023-04-20T02:53:38.661Z,100517.78
2023-04-20T02:56:40.050Z,100488.59
2023-04-20T02:59:25.584Z,100515.41
2023-04-20T03:02:28.660Z,100503.63
2023-04-20T03:05:11.953Z,100519.44
2023-04-20T03:07:51.480Z,100509.56
2023-04-20T03:10:27.781Z,100519.97
2023-04-20T03:13:20.231Z,100522.66
2023-04-20T03:16:19.702Z,100524.28
2023-04-20T03:19:04.259Z,100515.44
2023-04-20T03:21:47.122Z,100518.94
2023-04-20T03:24:22.487Z,100523.78
2023-04-20T03:26:58.473Z,100519.75
2023-04-20T03:29:52.909Z,100500.22
2023-04-20T03:32:36.476Z,100523.25
2023-04-20T03:35:12.692Z,100522.44
2023-04-20T03:37:53.947Z,100519.78
2023-04-20T03:40:32.290Z,100503.72
2023-04-20T03:43:09.822Z,100536.41
2023-04-20T03:45:50.406Z,100528.66
2023-04-20T03:48:28.555Z,100534.28
2023-04-20T03:51:03.465Z,100542.88
2023-04-20T03:53:43.697Z,100544.19
2023-04-20T03:56:19.989Z,100543.94
2023-04-20T03:59:01.331Z,100546.63
2023-04-20T04:01:36.780Z,100542.88
2023-04-20T04:04:15.949Z,100547.72
2023-04-20T04:06:50.593Z,100522.00
2023-04-20T04:09:23.513Z,100553.59
2023-04-20T04:12:02.088Z,100551.22
2023-04-20T04:14:36.677Z,100558.97
2023-04-20T04:17:14.918Z,100548.25
2023-04-20T04:20:01.803Z,100561.91
2023-04-20T04:22:39.671Z,100559.50
2023-04-20T04:25:43.948Z,100560.28
2023-04-20T04:28:21.776Z,100555.78
2023-04-20T04:31:08.784Z,100564.34
2023-04-20T04:33:50.378Z,100568.13
2023-04-20T04:36:40.481Z,100561.13
2023-04-20T04:39:18.739Z,100545.03
2023-04-20T04:42:11.884Z,100569.19
2023-04-20T04:44:57.212Z,100565.13
2023-04-20T04:47:41.864Z,100571.84
2023-04-20T04:50:25.475Z,100564.59
2023-04-20T04:53:04.617Z,100541.28
2023-04-20T04:55:39.976Z,100572.63
2023-04-20T04:58:16.091Z,100581.50
2023-04-20T05:00:51.348Z,100588.75
2023-04-20T05:03:23.983Z,100582.28
2023-04-20T05:05:58.595Z,100580.94
2023-04-20T05:08:36.798Z,100581.47
2023-04-20T05:11:11.816Z,100578.50
2023-04-20T05:13:46.372Z,100583.84
2023-04-20T05:16:25.314Z,100591.63
2023-04-20T05:19:05.816Z,100588.38
2023-04-20T05:21:48.322Z,100590.78
2023-04-20T05:24:28.282Z,100585.13
2023-04-20T05:27:05.370Z,100598.50
2023-04-20T05:29:47.866Z,100591.81
2023-04-20T05:32:24.511Z,100591.56
2023-04-20T05:34:59.522Z,100589.88
2023-04-20T05:37:39.235Z,100590.75
2023-04-20T05:40:23.517Z,100595.53
2023-04-20T05:42:56.850Z,100593.34
2023-04-20T05:45:34.484Z,100581.03
2023-04-20T05:48:12.402Z,100597.34
2023-04-20T05:50:49.667Z,100601.06
2023-04-20T05:53:23.363Z,100597.03
2023-04-20T05:56:03.355Z,100604.25
2023-04-20T05:58:41.936Z,100595.34
2023-04-20T06:01:18.659Z,100600.41
2023-04-20T06:03:58.813Z,100593.13
2023-04-20T06:06:33.542Z,100598.72
2023-04-20T06:09:16.791Z,100597.66
2023-04-20T06:11:54.433Z,100610.75
2023-04-20T06:14:27.637Z,100612.78
2023-04-20T06:17:02.777Z,100605.75
2023-04-20T06:19:42.413Z,100605.50
2023-04-20T06:22:18.532Z,100583.44
2023-04-20T06:25:05.497Z,100603.72
2023-04-20T06:27:41.745Z,100596.16
2023-04-20T06:30:16.685Z,100612.25
2023-04-20T06:33:03.938Z,100611.22
2023-04-20T06:35:49.055Z,100617.84
2023-04-20T06:38:23.295Z,100606.06
2023-04-20T06:40:56.184Z,100613.16
2023-04-20T06:43:33.388Z,100622.44
2023-04-20T06:46:05.983Z,100596.03
2023-04-20T06:48:37.585Z,100617.56
2023-04-20T06:51:18.274Z,100602.50
2023-04-20T06:53:50.839Z,100631.41
2023-04-20T06:56:25.901Z,100624.06
2023-04-20T06:59:05.676Z,100634.16
2023-04-20T07:01:43.444Z,100632.47
2023-04-20T07:04:22.029Z,100628.59
2023-04-20T07:07:04.363Z,100642.47
2023-04-20T07:09:41.912Z,100629.94
2023-04-20T07:12:16.148Z,100630.44
2023-04-20T07:15:05.707Z,100614.34
2023-04-20T07:17:43.998Z,100633.16
2023-04-20T07:20:15.049Z,100641.38
2023-04-20T07:22:47.633Z,100644.97
2023-04-20T07:25:23.007Z,100644.06
2023-04-20T07:28:02.763Z,100644.22
2023-04-20T07:30:40.482Z,100633.25
2023-04-20T07:33:27.257Z,100643.91
2023-04-20T07:36:08.781Z,100647.41
2023-04-20T07:38:46.969Z,100655.66
2023-04-20T07:41:35.904Z,100646.09
2023-04-20T07:44:12.902Z,100647.34
2023-04-20T07:46:55.717Z,100641.16
2023-04-20T07:49:29.406Z,100639.66
2023-04-20T07:52:15.699Z,100635.16
2023-04-20T07:55:00.303Z,100636.91
2023-04-20T07:57:42.132Z,100638.94
2023-04-20T08:00:29.507Z,100635.22
2023-04-20T08:03:11.343Z,100646.19
2023-04-20T08:05:53.286Z,100637.91
2023-04-20T08:08:36.043Z,100645.84
2023-04-20T08:11:11.926Z,100638.91
2023-04-20T08:13:57.898Z,100640.03
2023-04-20T08:16:37.450Z,100638.13
2023-04-20T08:19:21.190Z,100638.97
2023-04-20T08:22:10.508Z,100653.50
2023-04-20T08:24:42.195Z,100650.78
2023-04-20T08:27:17.946Z,100648.19
2023-04-20T08:29:50.000Z,100648.28
2023-04-20T08:32:24.036Z,100645.69
2023-04-20T08:35:06.095Z,100650.69
2023-04-20T08:37:57.006Z,100650.31
2023-04-20T08:40:30.273Z,100653.13
2023-04-20T08:43:09.324Z,100645.00
2023-04-20T08:45:45.779Z,100647.09
2023-04-20T08:48:21.534Z,100649.19
2023-04-20T08:51:08.132Z,100653.38
2023-04-20T08:53:43.515Z,100645.25
2023-04-20T08:56:22.971Z,100650.25
2023-04-20T08:59:06.335Z,100648.47
2023-04-20T09:01:43.105Z,100650.56
2023-04-20T09:04:26.090Z,100654.94
2023-04-20T09:07:03.810Z,100650.00
2023-04-20T09:09:40.570Z,100635.16
2023-04-20T09:12:26.071Z,100643.44
2023-04-20T09:15:02.800Z,100618.06
2023-04-20T09:17:42.817Z,100642.84
2023-04-20T09:20:34.780Z,100646.38
2023-04-20T09:23:29.985Z,100645.63
2023-04-20T09:26:10.126Z,100641.34
2023-04-20T09:28:54.140Z,100641.06
2023-04-20T09:31:38.427Z,100629.97
2023-04-20T09:34:11.582Z,100640.88
2023-04-20T09:37:15.403Z,100646.31
2023-04-20T09:39:52.660Z,100636.97
2023-04-20T09:42:29.664Z,100635.03
2023-04-20T09:45:15.119Z,100637.97
2023-04-20T09:47:53.320Z,100634.38
2023-04-20T09:50:34.893Z,100639.00
2023-04-20T09:53:21.609Z,100631.34
2023-04-20T09:55:56.987Z,100633.75
2023-04-20T09:58:39.626Z,100616.53
2023-04-20T10:01:28.672Z,100626.94
2023-04-20T10:04:16.944Z,100620.72
2023-04-20T10:07:05.729Z,100622.31
2023-04-20T10:09:45.030Z,100616.56
2023-04-20T10:12:28.864Z,100614.94
2023-04-20T10:15:03.009Z,100597.22
2023-04-20T10:17:43.040Z,100610.16
2023-04-20T10:20:23.983Z,100599.13
2023-04-20T10:23:19.487Z,100580.16
2023-04-20T10:26:05.131Z,100596.25
2023-04-20T10:28:49.421Z,100583.78
2023-04-20T10:31:39.867Z,100589.03
2023-04-20T10:34:12.097Z,100588.84
2023-04-20T10:36:51.981Z,100591.28
2023-04-20T10:39:26.384Z,100585.72
2023-04-20T10:42:00.323Z,100590.50
2023-04-20T10:44:37.349Z,100588.69
2023-04-20T10:47:12.242Z,100582.22
2023-04-20T10:49:50.311Z,100589.25
2023-04-20T10:52:41.338Z,100576.00
2023-04-20T10:55:25.151Z,100539.41
2023-04-20T10:58:01.676Z,100579.88
2023-04-20T11:00:34.958Z,100583.97
2023-04-20T11:03:15.216Z,100576.75
2023-04-20T11:05:50.123Z,100572.28
2023-04-20T11:08:37.817Z,100568.94
2023-04-20T11:11:15.053Z,100575.59
2023-04-20T11:13:49.134Z,100568.59
2023-04-20T11:16:46.905Z,100576.03
2023-04-20T11:19:31.268Z,100568.03
2023-04-20T11:22:07.129Z,100559.84
2023-04-20T11:24:45.092Z,100568.31
2023-04-20T11:27:26.581Z,100560.66
2023-04-20T11:30:09.355Z,100560.97
2023-04-20T11:32:59.145Z,100559.44
2023-04-20T11:35:47.475Z,100543.91
2023-04-20T11:38:35.453Z,100544.84
2023-04-20T11:41:15.660Z,100555.97
2023-04-20T11:43:50.990Z,100553.03
2023-04-20T11:46:24.488Z,100560.38
2023-04-20T11:49:01.145Z,100558.81
2023-04-20T11:51:38.201Z,100562.72
2023-04-20T11:54:14.939Z,100544.91
2023-04-20T11:56:49.931Z,100563.97
2023-04-20T11:59:25.529Z,100560.97
2023-04-20T12:02:05.203Z,100555.16
2023-04-20T12:04:44.225Z,100557.22
2023-04-20T12:07:17.865Z,100558.13
2023-04-20T12:09:55.034Z,100558.84
2023-04-20T12:12:27.214Z,100555.84
2023-04-20T12:15:02.301Z,100557.41
2023-04-20T12:17:39.229Z,100549.59
2023-04-20T12:20:19.743Z,100549.47
2023-04-20T12:22:57.182Z,100545.94
2023-04-20T12:25:35.459Z,100543.69
2023-04-20T12:28:08.797Z,100536.34
2023-04-20T12:30:49.795Z,100536.31
2023-04-20T12:33:21.323Z,100532.72
2023-04-20T12:36:04.322Z,100536.28
2023-04-20T12:38:43.748Z,100535.81
2023-04-20T12:41:18.723Z,100532.50
2023-04-20T12:43:53.132Z,100531.25
2023-04-20T12:46:30.618Z,100526.41
2023-04-20T12:49:18.915Z,100520.34
2023-04-20T12:52:03.346Z,100519.91
2023-04-20T12:54:43.982Z,100528.59
2023-04-20T12:57:21.130Z,100524.75
2023-04-20T12:59:59.342Z,100517.88
2023-04-20T13:02:35.191Z,100515.13
2023-04-20T13:05:12.580Z,100511.31
2023-04-20T13:07:48.881Z,100505.56
2023-04-20T13:10:22.585Z,100474.09
2023-04-20T13:12:56.733Z,100493.59
2023-04-20T13:15:39.246Z,100500.31
2023-04-20T13:18:17.679Z,100490.03
2023-04-20T13:20:58.476Z,100492.50
2023-04-20T13:23:36.400Z,100497.47
2023-04-20T13:26:13.381Z,100486.13
2023-04-20T13:28:47.795Z,100490.84
2023-04-20T13:31:29.117Z,100488.16
2023-04-20T13:34:01.163Z,100483.63
2023-04-20T13:36:36.726Z,100491.16
2023-04-20T13:39:26.216Z,100491.16
2023-04-20T13:42:00.900Z,100489.50
2023-04-20T13:44:31.279Z,100487.13
2023-04-20T13:47:06.158Z,100484.78
2023-04-20T13:49:40.465Z,100486.41
2023-04-20T13:52:22.201Z,100476.66
2023-04-20T13:55:11.668Z,100476.66
2023-04-20T13:57:52.149Z,100470.69
2023-04-20T14:00:29.173Z,100483.63
2023-04-20T14:03:03.339Z,100467.97
2023-04-20T14:05:36.695Z,100473.75
2023-04-20T14:08:14.136Z,100472.13
2023-04-20T14:10:59.099Z,100465.97
2023-04-20T14:13:31.340Z,100468.59
2023-04-20T14:16:11.808Z,100461.91
2023-04-20T14:18:51.756Z,100446.81
2023-04-20T14:21:29.217Z,100454.66
2023-04-20T14:24:04.768Z,100438.56
2023-04-20T14:26:46.544Z,100450.34
2023-04-20T14:29:26.067Z,100457.63
2023-04-20T14:32:12.065Z,100445.53
2023-04-20T14:34:47.803Z,100451.63
2023-04-20T14:37:27.536Z,100447.09
2023-04-20T14:40:03.428Z,100443.13
2023-04-20T14:42:37.737Z,100442.66
2023-04-20T14:45:14.951Z,100446.78
2023-04-20T14:47:52.703Z,100443.94
2023-04-20T14:50:32.778Z,100434.03
2023-04-20T14:53:19.540Z,100434.16
2023-04-20T14:55:59.968Z,100441.66
2023-04-20T14:58:37.026Z,100436.78
2023-04-20T15:01:14.149Z,100434.97
2023-04-20T15:03:52.621Z,100437.91
2023-04-20T15:06:38.417Z,100437.91
2023-04-20T15:09:20.472Z,100435.72
2023-04-20T15:11:50.675Z,100434.00
2023-04-20T15:14:35.170Z,100432.47
2023-04-20T15:17:08.754Z,100431.22
2023-04-20T15:19:52.943Z,100433.94
2023-04-20T15:22:29.002Z,100427.78
2023-04-20T15:25:02.906Z,100428.03
2023-04-20T15:27:42.752Z,100420.28
2023-04-20T15:30:25.580Z,100431.16
2023-04-20T15:33:04.827Z,100428.16
2023-04-20T15:35:43.103Z,100421.66
2023-04-20T15:38:23.209Z,100435.97
2023-04-20T15:41:08.563Z,100436.44
2023-04-20T15:43:47.285Z,100429.19
2023-04-20T15:46:31.220Z,100437.81
2023-04-20T15:49:08.626Z,100445.41
2023-04-20T15:51:46.589Z,100444.72
2023-04-20T15:54:28.814Z,100438.94
2023-04-20T15:57:11.100Z,100433.56
2023-04-20T15:59:50.211Z,100432.41
2023-04-20T16:02:31.122Z,100428.00
2023-04-20T16:05:04.819Z,100432.44
2023-04-20T16:07:41.851Z,100433.50
2023-04-20T16:10:29.406Z,100436.22
2023-04-20T16:13:06.070Z,100433.66
2023-04-20T16:15:43.186Z,100435.78
2023-04-20T16:18:19.841Z,100430.94
2023-04-20T16:21:00.379Z,100428.28
2023-04-20T16:23:37.133Z,100434.88
2023-04-20T16:26:13.908Z,100424.38
2023-04-20T16:28:51.018Z,100439.09
2023-04-20T16:31:33.558Z,100436.91
2023-04-20T16:34:13.991Z,100432.00
2023-04-20T16:36:51.371Z,100434.75
2023-04-20T16:39:29.487Z,100437.44
2023-04-20T16:42:05.402Z,100440.31
2023-04-20T16:44:42.671Z,100447.06
2023-04-20T16:47:21.942Z,100434.25
2023-04-20T16:50:16.105Z,100434.81
2023-04-20T16:52:59.478Z,100436.25
2023-04-20T16:55:38.638Z,100433.31
2023-04-20T16:58:18.653Z,100432.94
2023-04-20T17:00:56.194Z,100445.59
2023-04-20T17:03:36.088Z,100444.44
2023-04-20T17:06:17.394Z,100437.72
2023-04-20T17:08:51.279Z,100448.53
2023-04-20T17:11:30.354Z,100448.84
2023-04-20T17:14:14.175Z,100457.81
2023-04-20T17:16:53.010Z,100461.69
2023-04-20T17:19:29.022Z,100463.09
2023-04-20T17:22:14.275Z,100464.25
2023-04-20T17:24:50.793Z,100468.44
2023-04-20T17:27:36.800Z,100474.66
2023-04-20T17:30:15.364Z,100451.34
2023-04-20T17:33:02.292Z,100465.56
2023-04-20T17:35:39.497Z,100454.72
2023-04-20T17:38:17.440Z,100463.38
2023-04-20T17:40:54.223Z,100462.25
2023-04-20T17:43:31.159Z,100474.88
2023-04-20T17:46:04.767Z,100472.19
2023-04-20T17:48:40.924Z,100473.19
2023-04-20T17:51:26.693Z,100476.06
2023-04-20T17:54:02.563Z,100477.47
2023-04-20T17:56:36.438Z,100463.31
2023-04-20T17:59:13.288Z,100482.44
2023-04-20T18:01:56.172Z,100474.97
2023-04-20T18:04:30.464Z,100475.91
2023-04-20T18:07:04.379Z,100474.16
2023-04-20T18:09:46.333Z,100489.47
2023-04-20T18:12:22.382Z,100491.53
2023-04-20T18:14:56.393Z,100495.31
2023-04-20T18:17:29.250Z,100489.44
2023-04-20T18:20:02.526Z,100491.81
2023-04-20T18:22:39.328Z,100496.75
2023-04-20T18:25:20.930Z,100503.94
2023-04-20T18:27:56.959Z,100500.25
2023-04-20T18:30:29.451Z,100501.50
2023-04-20T18:33:09.755Z,100508.66
2023-04-20T18:35:52.738Z,100494.94
2023-04-20T18:38:28.457Z,100503.06
2023-04-20T18:41:05.813Z,100514.41
2023-04-20T18:43:50.092Z,100512.31
2023-04-20T18:46:27.486Z,100490.09
2023-04-20T18:49:03.905Z,100511.97
2023-04-20T18:51:43.547Z,100512.59
2023-04-20T18:54:23.099Z,100510.03
2023-04-20T18:57:03.199Z,100520.41
2023-04-20T18:59:36.153Z,100515.75
2023-04-20T19:02:18.682Z,100528.78
2023-04-20T19:04:51.042Z,100526.16
2023-04-20T19:07:31.311Z,100524.84
2023-04-20T19:10:08.105Z,100516.94
2023-04-20T19:12:45.520Z,100522.63
2023-04-20T19:15:16.459Z,100524.66
2023-04-20T19:17:54.139Z,100528.78
2023-04-20T19:20:42.227Z,100528.91
2023-04-20T19:23:25.364Z,100524.75
2023-04-20T19:26:03.449Z,100533.66
2023-04-20T19:28:36.665Z,100499.47
2023-04-20T19:31:12.459Z,100529.66
2023-04-20T19:33:48.063Z,100526.78
2023-04-20T19:36:21.360Z,100529.47
2023-04-20T19:38:55.723Z,100534.38
2023-04-20T19:41:46.238Z,100516.81
2023-04-20T19:44:24.629Z,100524.91
2023-04-20T19:46:59.106Z,100526.53
2023-04-20T19:49:46.725Z,100510.97
2023-04-20T19:52:31.135Z,100526.28
2023-04-20T19:55:05.765Z,100528.00
2023-04-20T19:57:44.398Z,100529.72
2023-04-20T20:00:27.728Z,100533.91
2023-04-20T20:03:14.952Z,100532.72
2023-04-20T20:05:58.049Z,100537.16
2023-04-20T20:08:32.733Z,100537.78
2023-04-20T20:11:08.163Z,100530.56
2023-04-20T20:13:43.081Z,100507.66
2023-04-20T20:16:28.363Z,100523.44
2023-04-20T20:19:02.866Z,100523.84
2023-04-20T20:21:38.238Z,100534.66
2023-04-20T20:24:09.252Z,100539.28
2023-04-20T20:26:47.054Z,100535.56
2023-04-20T20:29:23.331Z,100538.38
2023-04-20T20:32:03.512Z,100531.69
2023-04-20T20:34:39.370Z,100525.97
2023-04-20T20:37:17.749Z,100530.78
2023-04-20T20:39:52.265Z,100526.88
2023-04-20T20:42:40.638Z,100532.88
2023-04-20T20:45:22.617Z,100530.00
2023-04-20T20:47:57.309Z,100530.47
2023-04-20T20:50:32.831Z,100493.75
2023-04-20T20:53:08.801Z,100521.97
2023-04-20T20:55:44.030Z,100523.59
2023-04-20T20:58:18.382Z,100521.47
2023-04-20T21:00:52.953Z,100505.75
2023-04-20T21:03:43.710Z,100520.34
2023-04-20T21:06:23.348Z,100526.16
2023-04-20T21:08:56.323Z,100525.34
2023-04-20T21:11:33.306Z,100523.34
2023-04-20T21:14:10.993Z,100529.34
2023-04-20T21:16:46.283Z,100530.91
2023-04-20T21:19:23.637Z,100528.00
2023-04-20T21:22:03.870Z,100533.44
2023-04-20T21:24:50.597Z,100531.97
2023-04-20T21:27:28.135Z,100530.97
2023-04-20T21:30:06.686Z,100532.97
2023-04-20T21:32:41.664Z,100513.22
2023-04-20T21:35:19.869Z,100522.53
2023-04-20T21:38:07.580Z,100526.84
2023-04-20T21:40:45.673Z,100521.16
2023-04-20T21:43:24.714Z,100522.84
2023-04-20T21:45:58.682Z,100497.50
2023-04-20T21:48:33.574Z,100526.22
2023-04-20T21:51:16.339Z,100522.91
2023-04-20T21:53:50.123Z,100523.72
2023-04-20T21:56:29.745Z,100509.28
2023-04-20T21:59:00.234Z,100521.63
2023-04-20T22:04:28.748Z,100525.63
2023-04-20T22:07:09.956Z,100527.00
2023-04-20T22:09:50.061Z,100518.75
2023-04-20T22:12:39.905Z,100522.19
2023-04-20T22:15:15.404Z,100528.06
2023-04-20T22:18:13.940Z,100525.91
2023-04-20T22:20:49.485Z,100523.53
2023-04-20T22:23:31.588Z,100523.63
2023-04-20T22:26:12.591Z,100518.53
2023-04-20T22:28:46.942Z,100521.66
2023-04-20T22:31:28.600Z,100520.94
2023-04-20T22:34:03.304Z,100500.31
2023-04-20T22:36:45.498Z,100512.56
2023-04-20T22:39:27.155Z,100511.41
2023-04-20T22:42:06.020Z,100517.59
2023-04-20T22:44:41.406Z,100511.41
2023-04-20T22:47:17.001Z,100519.19
2023-04-20T22:49:57.189Z,100516.00
2023-04-20T22:52:32.176Z,100515.41
2023-04-20T22:55:25.072Z,100505.44
2023-04-20T22:58:02.629Z,100510.03
2023-04-20T23:00:34.291Z,100506.03
2023-04-20T23:03:09.357Z,100509.81
2023-04-20T23:05:47.953Z,100507.69
2023-04-20T23:08:28.501Z,100498.59
2023-04-20T23:11:08.687Z,100506.41
2023-04-20T23:13:44.444Z,100503.81
2023-04-20T23:16:21.396Z,100502.81
2023-04-20T23:18:58.165Z,100508.47
2023-04-20T23:21:40.155Z,100506.09
2023-04-20T23:24:12.312Z,100501.56
2023-04-20T23:26:54.541Z,100494.56
2023-04-20T23:29:33.962Z,100496.72
2023-04-20T23:32:06.958Z,100492.47
2023-04-20T23:34:46.879Z,100487.13
2023-04-20T23:37:21.245Z,100486.91
2023-04-20T23:39:55.534Z,100496.56
2023-04-20T23:42:39.836Z,100488.47
2023-04-20T23:45:19.189Z,100485.28
2023-04-20T23:47:56.091Z,100483.44
2023-04-20T23:50:36.270Z,100481.28
2023-04-20T23:53:16.729Z,100487.75
2023-04-20T23:55:58.387Z,100499.34
2023-04-20T23:58:40.898Z,100505.56
